Time;durP1;ratioP1;P1;durP2;ratioP2;P2;SDS_P1;SDS_P2;PMS_P1;PMS_P2;Temp;Humidity;BMP_temperature;BMP_pressure;BME280_temperature;BME280_humidity;BME280_pressure;Samples;Min_cycle;Max_cycle;Signal;HPM_P1;HPM_P2
2021/04/15 00:01:33;;;;;;;4.17;3.87;;;5.00;62.70;;;;;;6249993;28;20806;-60
2021/04/15 00:04:35;;;;;;;3.80;3.43;;;5.00;62.90;;;;;;6239289;28;20483;-60
2021/04/15 00:07:38;;;;;;;4.30;3.90;;;4.90;63.20;;;;;;6249748;28;20943;-60
2021/04/15 00:10:44;;;;;;;5.03;4.10;;;4.90;63.50;;;;;;6249593;28;20483;-61
2021/04/15 00:13:48;;;;;;;4.80;4.23;;;4.90;63.70;;;;;;6249848;28;20479;-60
2021/04/15 00:16:51;;;;;;;5.80;4.90;;;4.90;63.90;;;;;;6249747;28;20471;-62
2021/04/15 00:19:53;;;;;;;7.33;6.47;;;4.90;64.50;;;;;;6249663;28;20467;-60
2021/04/15 00:22:57;;;;;;;7.97;7.27;;;4.80;64.60;;;;;;6249345;28;20489;-60
2021/04/15 00:26:01;;;;;;;7.63;6.93;;;4.70;65.00;;;;;;6244500;28;20490;-59
2021/04/15 00:29:04;;;;;;;7.47;6.80;;;4.60;65.80;;;;;;6233868;28;20475;-59
2021/04/15 00:32:08;;;;;;;8.60;7.80;;;4.60;66.00;;;;;;6249221;28;20478;-59
2021/04/15 00:35:11;;;;;;;10.87;9.67;;;4.60;66.60;;;;;;6235535;28;20479;-58
2021/04/15 00:38:15;;;;;;;9.13;8.27;;;4.60;66.60;;;;;;6249161;28;20810;-59
2021/04/15 00:41:19;;;;;;;10.87;9.37;;;4.60;66.60;;;;;;6249152;28;20463;-59
2021/04/15 00:44:21;;;;;;;10.87;9.33;;;4.50;67.00;;;;;;6249051;28;20482;-59
2021/04/15 00:47:28;;;;;;;10.73;9.57;;;4.50;67.10;;;;;;6249389;28;20466;-59
2021/04/15 00:50:34;;;;;;;11.40;9.63;;;4.50;67.30;;;;;;6248757;28;20541;-59
2021/04/15 00:53:57;;;;;;;9.43;8.50;;;4.50;67.20;;;;;;6402117;22;21570;-63
2021/04/15 00:57:07;;;;;;;10.57;9.60;;;4.40;67.60;;;;;;6273771;28;20473;-66
2021/04/15 01:00:11;;;;;;;8.80;8.00;;;4.30;68.00;;;;;;6274552;28;21113;-66
2021/04/15 01:03:14;;;;;;;9.67;8.63;;;4.20;69.10;;;;;;6274163;28;20502;-66
2021/04/15 01:06:16;;;;;;;10.47;9.30;;;4.30;69.40;;;;;;6256884;28;20478;-68
2021/04/15 01:09:19;;;;;;;10.33;8.53;;;4.30;69.20;;;;;;6249232;28;20486;-66
2021/04/15 01:12:37;;;;;;;9.00;8.20;;;4.30;69.40;;;;;;6273183;28;20477;-67
2021/04/15 01:15:58;;;;;;;12.40;9.93;;;4.30;69.40;;;;;;6254177;28;20486;-66
2021/04/15 01:19:14;;;;;;;13.93;11.67;;;4.30;69.90;;;;;;6253943;28;20545;-67
2021/04/15 01:22:42;;;;;;;14.87;11.00;;;4.20;69.80;;;;;;6251827;28;20475;-66
2021/04/15 01:26:19;;;;;;;13.30;9.80;;;4.20;70.50;;;;;;6251441;28;20785;-67
2021/04/15 01:29:33;;;;;;;11.83;10.60;;;4.20;70.90;;;;;;6231372;28;20583;-66
2021/04/15 01:32:39;;;;;;;14.07;12.60;;;4.10;70.90;;;;;;6253755;28;20459;-66
2021/04/15 01:35:50;;;;;;;16.23;12.20;;;4.10;71.00;;;;;;6253083;28;20458;-67
2021/04/15 01:38:58;;;;;;;14.10;12.67;;;4.10;71.10;;;;;;6252065;28;20976;-68
2021/04/15 01:42:05;;;;;;;13.63;12.27;;;4.00;71.20;;;;;;6253336;28;20469;-69
2021/04/15 01:45:10;;;;;;;13.30;11.37;;;3.90;72.30;;;;;;6253912;28;20475;-65
2021/04/15 01:48:16;;;;;;;12.27;11.00;;;3.90;72.50;;;;;;6258280;28;20817;-68
2021/04/15 01:51:22;;;;;;;12.67;11.57;;;3.80;73.40;;;;;;6255000;28;20466;-67
2021/04/15 01:54:33;;;;;;;13.00;10.70;;;3.80;73.60;;;;;;6257997;28;20506;-67
2021/04/15 01:57:44;;;;;;;12.57;11.37;;;3.80;73.90;;;;;;6253112;28;20467;-66
2021/04/15 02:00:51;;;;;;;13.10;11.20;;;3.70;74.90;;;;;;6251073;28;20482;-67
2021/04/15 02:03:59;;;;;;;13.97;12.67;;;3.50;75.30;;;;;;6251398;28;20502;-66
2021/04/15 02:07:09;;;;;;;15.60;13.20;;;3.40;75.90;;;;;;6253033;28;20482;-66
2021/04/15 02:10:13;;;;;;;13.60;11.53;;;3.50;75.60;;;;;;6252946;28;20494;-67
2021/04/15 02:13:17;;;;;;;14.53;12.53;;;3.50;75.50;;;;;;6252713;28;20467;-67
2021/04/15 02:16:26;;;;;;;14.57;13.07;;;3.50;75.80;;;;;;6252520;28;20485;-67
2021/04/15 02:19:33;;;;;;;14.77;13.43;;;3.50;75.70;;;;;;6252692;28;20480;-66
2021/04/15 02:22:40;;;;;;;16.63;15.13;;;3.40;75.50;;;;;;6252501;28;20475;-64
2021/04/15 02:25:47;;;;;;;17.90;16.07;;;3.40;75.70;;;;;;6251011;28;20799;-64
2021/04/15 02:28:55;;;;;;;15.90;14.23;;;3.30;75.90;;;;;;6252380;28;20490;-64
2021/04/15 02:32:00;;;;;;;16.10;14.40;;;3.30;76.20;;;;;;6252293;28;20482;-64
2021/04/15 02:35:09;;;;;;;15.63;14.00;;;3.30;76.70;;;;;;6252280;28;20471;-64
2021/04/15 02:38:12;;;;;;;15.40;13.80;;;3.30;77.30;;;;;;6252139;28;20486;-64
2021/04/15 02:41:19;;;;;;;17.27;14.43;;;3.30;77.40;;;;;;6251877;28;20985;-64
2021/04/15 02:44:26;;;;;;;16.20;14.50;;;3.20;77.30;;;;;;6251886;28;20494;-64
2021/04/15 02:47:36;;;;;;;18.13;15.67;;;3.20;77.60;;;;;;6251908;28;20432;-64
2021/04/15 02:50:39;;;;;;;17.23;15.43;;;3.20;77.80;;;;;;6252018;28;20474;-65
2021/04/15 02:53:48;;;;;;;18.20;16.53;;;3.10;78.30;;;;;;6251862;28;20467;-64
2021/04/15 02:56:55;;;;;;;16.80;15.30;;;2.90;78.90;;;;;;6251581;28;20456;-64
2021/04/15 03:00:00;;;;;;;20.53;17.10;;;2.90;79.50;;;;;;6251720;28;20461;-65
2021/04/15 03:03:06;;;;;;;21.70;17.20;;;2.90;80.00;;;;;;6251678;28;20482;-65
2021/04/15 03:06:13;;;;;;;20.80;18.60;;;3.00;80.00;;;;;;6247068;28;20467;-64
2021/04/15 03:09:16;;;;;;;21.70;19.40;;;3.00;80.00;;;;;;6251325;28;20494;-65
2021/04/15 03:12:21;;;;;;;23.07;20.80;;;3.00;80.20;;;;;;6251067;28;20798;-65
2021/04/15 03:15:27;;;;;;;24.03;21.53;;;3.00;80.20;;;;;;6251251;28;20475;-65
2021/04/15 03:18:37;;;;;;;24.33;21.80;;;3.00;80.00;;;;;;6251024;28;20490;-64
2021/04/15 03:21:46;;;;;;;21.10;18.90;;;2.90;80.00;;;;;;6251170;28;20491;-64
2021/04/15 03:24:51;;;;;;;18.27;16.27;;;3.00;80.40;;;;;;6250905;28;20780;-64
2021/04/15 03:27:59;;;;;;;18.10;15.73;;;2.90;81.40;;;;;;6251354;28;20478;-64
2021/04/15 03:31:06;;;;;;;15.20;13.13;;;2.90;81.00;;;;;;6250982;28;20509;-64
2021/04/15 03:34:17;;;;;;;16.47;12.73;;;2.80;81.60;;;;;;6250826;28;20479;-64
2021/04/15 03:37:22;;;;;;;12.33;10.97;;;2.80;82.00;;;;;;6250772;28;20478;-64
2021/04/15 03:40:26;;;;;;;8.60;7.80;;;2.80;82.20;;;;;;6250580;28;20481;-64
2021/04/15 03:43:31;;;;;;;9.83;8.97;;;2.70;82.20;;;;;;6250464;28;20483;-64
2021/04/15 03:46:37;;;;;;;8.93;8.03;;;2.80;82.30;;;;;;6250597;28;20471;-65
2021/04/15 03:49:44;;;;;;;8.80;8.00;;;2.80;82.20;;;;;;6250422;28;20467;-65
2021/04/15 03:52:54;;;;;;;9.47;8.43;;;2.80;82.40;;;;;;6250374;28;20478;-66
2021/04/15 03:55:59;;;;;;;10.70;9.27;;;2.70;82.50;;;;;;6249916;28;20483;-65
2021/04/15 03:59:05;;;;;;;10.80;9.30;;;2.80;83.00;;;;;;6250211;28;20486;-64
2021/04/15 04:02:13;;;;;;;10.40;9.47;;;2.80;83.70;;;;;;6250177;28;20482;-65
2021/04/15 04:05:22;;;;;;;10.00;9.00;;;2.80;83.00;;;;;;6249934;28;20488;-65
2021/04/15 04:08:37;;;;;;;12.30;10.97;;;2.80;82.90;;;;;;6249959;28;20810;-65
2021/04/15 04:11:41;;;;;;;10.63;8.90;;;2.70;82.90;;;;;;6250040;28;20985;-65
2021/04/15 04:14:51;;;;;;;9.63;8.80;;;2.70;83.20;;;;;;6249675;28;20463;-65
2021/04/15 04:18:06;;;;;;;9.23;8.33;;;2.70;83.30;;;;;;6250297;28;20466;-65
2021/04/15 04:21:16;;;;;;;11.47;9.70;;;2.60;83.10;;;;;;6249873;28;20788;-65
2021/04/15 04:24:25;;;;;;;14.17;9.27;;;2.60;83.40;;;;;;6249619;28;20836;-65
2021/04/15 04:27:33;;;;;;;12.90;9.10;;;2.60;83.70;;;;;;6249667;28;20963;-65
2021/04/15 04:30:40;;;;;;;9.87;8.20;;;2.50;84.00;;;;;;6249986;28;20803;-64
2021/04/15 04:33:46;;;;;;;9.23;8.33;;;2.50;84.60;;;;;;6249548;28;20482;-64
2021/04/15 04:36:51;;;;;;;9.23;8.30;;;2.50;84.70;;;;;;6249976;28;20463;-64
2021/04/15 04:39:57;;;;;;;7.73;6.90;;;2.60;85.00;;;;;;6249990;28;20470;-65
2021/04/15 04:43:04;;;;;;;8.10;7.30;;;2.60;84.70;;;;;;6249691;28;20966;-64
2021/04/15 04:46:15;;;;;;;8.27;7.57;;;2.60;85.00;;;;;;6249986;28;20786;-64
2021/04/15 04:49:22;;;;;;;7.90;7.23;;;2.70;85.10;;;;;;6251924;28;20467;-64
2021/04/15 04:52:29;;;;;;;10.10;8.50;;;2.80;84.80;;;;;;6254513;28;20830;-65
2021/04/15 04:55:37;;;;;;;8.30;7.63;;;2.80;84.30;;;;;;6254183;28;20490;-64
2021/04/15 04:58:40;;;;;;;9.10;8.30;;;2.90;84.70;;;;;;6254554;28;20786;-64
2021/04/15 05:01:42;;;;;;;10.10;7.57;;;2.90;83.20;;;;;;6254425;28;20482;-64
2021/04/15 05:04:45;;;;;;;8.63;7.60;;;2.90;83.10;;;;;;6254030;28;20497;-65
2021/04/15 05:07:54;;;;;;;10.30;8.10;;;3.00;83.00;;;;;;6254178;28;20463;-64
2021/04/15 05:10:57;;;;;;;10.33;9.53;;;3.00;82.90;;;;;;6254253;28;20487;-64
2021/04/15 05:14:01;;;;;;;14.13;9.40;;;3.10;82.50;;;;;;6253997;28;21001;-64
2021/04/15 05:17:05;;;;;;;13.20;11.00;;;3.20;82.40;;;;;;6245183;28;20482;-64
2021/04/15 05:20:12;;;;;;;11.60;10.53;;;3.30;82.40;;;;;;6253819;28;20471;-64
2021/04/15 05:23:20;;;;;;;16.80;11.60;;;3.30;82.00;;;;;;6253876;28;20479;-64
2021/04/15 05:26:25;;;;;;;13.83;12.40;;;3.30;81.70;;;;;;6252912;28;20475;-64
2021/04/15 05:29:30;;;;;;;13.17;11.77;;;3.30;82.20;;;;;;6253588;28;21024;-64
2021/04/15 05:32:33;;;;;;;14.87;13.47;;;3.50;82.50;;;;;;6253081;28;20482;-64
2021/04/15 05:35:40;;;;;;;15.83;14.20;;;3.50;82.40;;;;;;6253735;28;20450;-64
2021/04/15 05:38:45;;;;;;;19.67;12.40;;;3.70;82.20;;;;;;6253764;28;20430;-64
2021/04/15 05:41:56;;;;;;;13.40;10.73;;;4.00;82.00;;;;;;6253661;28;20439;-64
2021/04/15 05:45:05;;;;;;;13.40;9.90;;;4.20;81.80;;;;;;6253694;28;20466;-64
2021/04/15 05:48:12;;;;;;;16.57;9.00;;;4.90;81.10;;;;;;6253406;28;20945;-65
2021/04/15 05:51:22;;;;;;;8.43;7.63;;;6.10;77.60;;;;;;6252860;28;20486;-64
2021/04/15 05:54:28;;;;;;;10.10;9.10;;;7.00;71.40;;;;;;6253018;28;20822;-65
2021/04/15 05:57:35;;;;;;;13.90;8.57;;;7.50;68.50;;;;;;6253382;28;20806;-63
2021/04/15 06:00:43;;;;;;;8.90;8.00;;;8.50;66.40;;;;;;6253003;28;20478;-65
2021/04/15 06:03:54;;;;;;;8.87;7.97;;;9.60;62.10;;;;;;6253159;28;20499;-65
2021/04/15 06:06:57;;;;;;;10.33;7.30;;;10.50;57.70;;;;;;6252648;28;20977;-67
2021/04/15 06:10:00;;;;;;;9.37;8.30;;;11.40;54.50;;;;;;6252652;28;20471;-65
2021/04/15 06:13:09;;;;;;;13.20;9.67;;;11.90;52.40;;;;;;6252652;28;20570;-67
2021/04/15 06:16:19;;;;;;;11.80;9.23;;;12.70;50.90;;;;;;6252991;28;20472;-65
2021/04/15 06:19:23;;;;;;;8.90;8.00;;;13.50;48.60;;;;;;6248907;28;20473;-64
2021/04/15 06:22:28;;;;;;;12.77;8.90;;;14.10;46.50;;;;;;6252049;28;20779;-64
2021/04/15 06:25:34;;;;;;;13.93;8.97;;;14.70;44.90;;;;;;6251717;28;21004;-67
2021/04/15 06:28:40;;;;;;;13.80;8.00;;;15.30;43.50;;;;;;6252781;28;20474;-65
2021/04/15 06:31:48;;;;;;;14.40;8.30;;;15.70;41.50;;;;;;6252676;28;20479;-65
2021/04/15 06:34:51;;;;;;;10.07;9.03;;;16.00;40.70;;;;;;6251797;28;20826;-64
2021/04/15 06:37:58;;;;;;;10.07;7.33;;;16.70;39.90;;;;;;6251400;28;20467;-62
2021/04/15 06:41:26;;;;;;;9.47;7.93;;;17.50;38.20;;;;;;6249067;28;20459;-62
2021/04/15 06:44:52;;;;;;;10.50;7.20;;;18.30;36.50;;;;;;6251654;28;20463;-63
2021/04/15 06:48:25;;;;;;;9.30;8.40;;;18.70;34.80;;;;;;6251758;28;20463;-64
2021/04/15 06:51:48;;;;;;;10.13;9.13;;;19.10;34.20;;;;;;6251986;28;20463;-61
2021/04/15 06:55:00;;;;;;;15.90;8.17;;;19.70;33.60;;;;;;6251526;28;20479;-66
2021/04/15 06:58:38;;;;;;;12.60;8.23;;;20.00;31.50;;;;;;6251235;28;20481;-66
2021/04/15 07:02:03;;;;;;;14.30;10.40;;;18.50;32.70;;;;;;6251668;28;20467;-64
2021/04/15 07:05:11;;;;;;;12.10;9.47;;;18.10;34.00;;;;;;6250838;28;20475;-62
2021/04/15 07:08:40;;;;;;;17.87;8.40;;;19.40;32.80;;;;;;6248402;28;20480;-62
2021/04/15 07:12:04;;;;;;;8.00;7.20;;;20.40;31.10;;;;;;6247761;28;20483;-62
2021/04/15 07:15:29;;;;;;;9.90;6.70;;;21.00;29.70;;;;;;6249485;28;20315;-62
2021/04/15 07:18:57;;;;;;;8.20;7.20;;;22.40;28.60;;;;;;6230552;28;20240;-62
2021/04/15 07:22:32;;;;;;;10.07;6.70;;;23.20;26.70;;;;;;6250407;28;20230;-62
2021/04/15 07:25:43;;;;;;;7.07;6.30;;;24.00;25.60;;;;;;6250002;28;20216;-62
2021/04/15 07:29:07;;;;;;;7.10;6.00;;;25.00;24.90;;;;;;6250089;28;20242;-62
2021/04/15 07:32:26;;;;;;;8.63;4.07;;;25.20;23.60;;;;;;6226264;28;20229;-62
2021/04/15 07:35:39;;;;;;;4.67;3.40;;;24.90;21.50;;;;;;6236503;28;20236;-63
2021/04/15 07:39:13;;;;;;;3.93;3.57;;;24.80;22.10;;;;;;6250178;28;20678;-62
2021/04/15 07:42:52;;;;;;;4.23;3.93;;;25.70;21.00;;;;;;6226251;28;20224;-62
2021/04/15 07:46:08;;;;;;;3.90;3.57;;;26.20;20.20;;;;;;6226317;28;20232;-62
2021/04/15 07:49:24;;;;;;;3.90;3.60;;;25.40;19.80;;;;;;6247151;28;20256;-64
2021/04/15 07:53:10;;;;;;;6.03;4.00;;;23.00;20.70;;;;;;6250733;28;20232;-63
2021/04/15 07:56:50;;;;;;;4.57;4.17;;;20.50;22.50;;;;;;6249928;28;20723;-64
2021/04/15 08:00:29;;;;;;;3.80;3.37;;;21.30;22.20;;;;;;6250375;28;20217;-64
2021/04/15 08:04:03;;;;;;;4.07;3.70;;;19.90;22.80;;;;;;6249941;28;20240;-64
2021/04/15 08:07:36;;;;;;;5.10;4.60;;;19.90;23.40;;;;;;6250205;28;20232;-63
2021/04/15 08:11:09;;;;;;;3.47;3.17;;;18.80;23.60;;;;;;6249938;28;20668;-63
2021/04/15 08:14:30;;;;;;;3.87;3.50;;;17.10;24.10;;;;;;6250132;28;20475;-62
2021/04/15 08:17:43;;;;;;;3.67;3.37;;;15.60;25.80;;;;;;6249934;28;20475;-65
2021/04/15 08:21:03;;;;;;;4.57;3.63;;;16.50;25.80;;;;;;6249701;28;20536;-65
2021/04/15 08:24:31;;;;;;;4.03;3.63;;;18.00;25.40;;;;;;6249719;28;20785;-63
2021/04/15 08:27:59;;;;;;;4.47;3.17;;;18.10;24.10;;;;;;6250011;28;20470;-63
2021/04/15 08:31:10;;;;;;;5.10;3.40;;;16.80;24.60;;;;;;6249589;28;20483;-63
2021/04/15 08:34:24;;;;;;;6.93;3.63;;;15.70;25.30;;;;;;6249384;28;20566;-63
2021/04/15 08:37:36;;;;;;;3.53;3.20;;;14.50;26.30;;;;;;6249798;28;20467;-61
2021/04/15 08:40:52;;;;;;;3.37;3.17;;;13.30;27.10;;;;;;6249722;28;20478;-62
2021/04/15 08:44:30;;;;;;;3.03;2.83;;;12.50;28.50;;;;;;6249817;28;20472;-62
2021/04/15 08:47:49;;;;;;;6.90;3.40;;;12.10;29.10;;;;;;6224309;28;20505;-62
2021/04/15 08:51:03;;;;;;;2.90;2.67;;;12.60;29.20;;;;;;6249300;28;20470;-63
2021/04/15 08:54:20;;;;;;;3.40;3.07;;;14.10;27.70;;;;;;6249602;28;20491;-62
2021/04/15 08:57:31;;;;;;;5.30;4.90;;;15.80;27.10;;;;;;6249244;28;20459;-63
2021/04/15 09:00:40;;;;;;;4.17;3.20;;;19.60;24.50;;;;;;6248830;28;20485;-63
2021/04/15 09:03:55;;;;;;;3.53;3.23;;;23.80;21.10;;;;;;6248347;28;20235;-63
2021/04/15 09:07:09;;;;;;;3.23;3.00;;;23.10;20.20;;;;;;6246318;28;20394;-63
2021/04/15 09:10:18;;;;;;;5.00;2.50;;;21.30;20.50;;;;;;6250076;28;20251;-62
2021/04/15 09:13:32;;;;;;;2.63;2.30;;;19.30;21.10;;;;;;6249694;28;20232;-62
2021/04/15 09:16:38;;;;;;;3.20;2.73;;;18.10;22.70;;;;;;6249467;28;20553;-63
2021/04/15 09:19:57;;;;;;;3.63;3.00;;;16.80;23.20;;;;;;6249590;28;21064;-62
2021/04/15 09:23:17;;;;;;;2.20;1.93;;;16.90;24.00;;;;;;6248829;28;20483;-62
2021/04/15 09:26:32;;;;;;;2.77;2.50;;;19.90;23.20;;;;;;6248057;28;20490;-60
2021/04/15 09:29:42;;;;;;;3.53;2.70;;;21.80;20.80;;;;;;6244449;28;20292;-61
2021/04/15 09:32:56;;;;;;;5.50;3.10;;;20.40;21.20;;;;;;6224303;28;20233;-60
2021/04/15 09:36:06;;;;;;;4.57;3.30;;;18.50;22.20;;;;;;6227545;28;20948;-60
2021/04/15 09:39:50;;;;;;;3.93;2.80;;;17.00;23.30;;;;;;6229091;28;20468;-62
2021/04/15 09:43:02;;;;;;;3.20;2.90;;;16.20;24.20;;;;;;6228465;28;20476;-60
2021/04/15 09:46:13;;;;;;;5.60;2.90;;;15.60;24.70;;;;;;6229143;28;20479;-62
2021/04/15 09:49:38;;;;;;;3.17;2.43;;;15.10;25.10;;;;;;6250863;28;20554;-62
2021/04/15 09:52:56;;;;;;;3.10;2.80;;;14.60;24.80;;;;;;6253114;28;20493;-62
2021/04/15 09:56:09;;;;;;;4.80;2.97;;;14.10;25.60;;;;;;6252711;28;20490;-62
2021/04/15 09:59:27;;;;;;;2.77;2.53;;;14.00;26.00;;;;;;6253087;28;20475;-62
2021/04/15 10:02:34;;;;;;;2.97;2.40;;;14.30;25.80;;;;;;6252288;28;20475;-63
2021/04/15 10:06:09;;;;;;;2.73;2.50;;;14.30;25.50;;;;;;6252717;28;20543;-62
2021/04/15 10:09:27;;;;;;;2.37;2.17;;;14.40;25.20;;;;;;6249123;28;20470;-61
2021/04/15 10:12:42;;;;;;;2.93;2.57;;;14.80;25.30;;;;;;6252184;28;20742;-62
2021/04/15 10:15:51;;;;;;;2.47;2.33;;;14.90;24.90;;;;;;6252690;28;20471;-62
2021/04/15 10:19:38;;;;;;;2.40;2.20;;;15.30;25.20;;;;;;6252557;28;20471;-62
2021/04/15 10:22:51;;;;;;;2.40;2.10;;;15.60;24.30;;;;;;6252422;28;20471;-63
2021/04/15 10:25:57;;;;;;;3.63;2.77;;;14.70;25.40;;;;;;6252707;28;20463;-62
2021/04/15 10:29:18;;;;;;;3.40;2.23;;;14.20;26.20;;;;;;6252711;28;20487;-63
2021/04/15 10:32:50;;;;;;;2.60;2.20;;;13.80;26.10;;;;;;6247802;28;20471;-68
2021/04/15 10:36:18;;;;;;;3.10;2.70;;;13.60;25.90;;;;;;6243764;28;20462;-67
2021/04/15 10:44:10;;;;;;;2.17;1.97;;;13.40;26.50;;;;;;6251160;28;20563;-65
2021/04/15 10:47:28;;;;;;;5.53;2.17;;;13.20;25.60;;;;;;6250314;28;20478;-59
2021/04/15 10:50:43;;;;;;;2.80;2.50;;;13.30;25.90;;;;;;6250287;28;20459;-62
2021/04/15 10:53:50;;;;;;;2.93;2.53;;;13.70;25.50;;;;;;6251528;28;20452;-62
2021/04/15 10:57:01;;;;;;;2.90;2.10;;;14.00;25.10;;;;;;6252046;28;20561;-64
2021/04/15 11:00:25;;;;;;;2.70;1.90;;;13.80;27.00;;;;;;6251708;28;20462;-68
2021/04/15 11:03:35;;;;;;;3.40;2.17;;;13.50;26.20;;;;;;6251742;28;20624;-62
2021/04/15 11:06:41;;;;;;;2.10;2.00;;;13.00;26.80;;;;;;6251168;28;20476;-64
2021/04/15 11:09:45;;;;;;;2.03;1.93;;;12.80;28.10;;;;;;6251364;28;20950;-60
2021/04/15 11:12:48;;;;;;;5.03;2.60;;;12.70;28.30;;;;;;6251293;28;20467;-61
2021/04/15 11:15:52;;;;;;;2.60;2.40;;;12.60;29.10;;;;;;6250790;28;20815;-63
2021/04/15 11:18:54;;;;;;;3.57;3.27;;;12.70;28.70;;;;;;6251208;28;20471;-67
2021/04/15 11:21:57;;;;;;;2.90;2.70;;;13.30;28.30;;;;;;6251017;28;20470;-64
2021/04/15 11:25:13;;;;;;;2.50;2.30;;;13.80;27.80;;;;;;6250613;28;20576;-62
2021/04/15 11:28:30;;;;;;;3.03;2.43;;;14.50;30.00;;;;;;6274742;28;20997;-66
2021/04/15 11:31:38;;;;;;;2.20;2.10;;;14.60;25.80;;;;;;6273480;28;20474;-67
2021/04/15 11:34:40;;;;;;;2.63;2.43;;;14.50;26.50;;;;;;6250226;28;20594;-67
2021/04/15 11:37:45;;;;;;;2.30;2.10;;;14.60;26.40;;;;;;6250401;28;21000;-66
2021/04/15 11:40:50;;;;;;;4.90;2.23;;;14.40;26.30;;;;;;6245824;28;20562;-65
2021/04/15 11:44:04;;;;;;;3.20;2.50;;;14.20;27.70;;;;;;6250568;28;20493;-67
2021/04/15 11:47:12;;;;;;;2.50;2.40;;;13.70;28.80;;;;;;6250232;28;20950;-67
2021/04/15 11:50:17;;;;;;;2.53;2.33;;;13.30;29.20;;;;;;6249152;28;20490;-68
2021/04/15 11:53:42;;;;;;;3.50;2.43;;;12.90;29.50;;;;;;6250050;28;20970;-65
2021/04/15 11:56:45;;;;;;;3.60;3.03;;;12.70;30.00;;;;;;6245767;28;20493;-65
2021/04/15 12:00:07;;;;;;;2.60;2.40;;;12.80;30.00;;;;;;6248848;28;20528;-64
2021/04/15 12:03:14;;;;;;;2.53;2.40;;;13.10;29.40;;;;;;6247877;28;20954;-62
2021/04/15 12:06:16;;;;;;;7.80;3.93;;;13.30;28.70;;;;;;6247711;28;20483;-62
2021/04/15 12:09:22;;;;;;;2.20;2.00;;;13.70;28.00;;;;;;6248083;28;20549;-63
2021/04/15 12:12:36;;;;;;;2.30;1.90;;;14.10;27.20;;;;;;6247625;28;20533;-61
2021/04/15 12:15:42;;;;;;;2.23;2.00;;;14.60;25.80;;;;;;6248904;28;20463;-63
2021/04/15 12:18:48;;;;;;;2.30;2.20;;;14.90;25.30;;;;;;6250166;28;20471;-65
2021/04/15 12:21:58;;;;;;;2.50;2.30;;;14.80;26.00;;;;;;6250116;28;20460;-64
2021/04/15 12:25:05;;;;;;;4.83;2.50;;;14.60;28.80;;;;;;6249984;28;20485;-68
2021/04/15 12:28:19;;;;;;;2.00;1.80;;;14.40;27.60;;;;;;6249641;28;20486;-65
2021/04/15 12:31:26;;;;;;;2.87;2.37;;;14.30;27.80;;;;;;6249146;28;20554;-69
2021/04/15 12:34:40;;;;;;;2.67;1.90;;;14.00;27.90;;;;;;6249824;28;20479;-65
2021/04/15 12:37:45;;;;;;;2.33;2.13;;;13.90;27.70;;;;;;6249870;28;20490;-66
2021/04/15 12:40:52;;;;;;;2.80;1.70;;;14.00;28.20;;;;;;6249395;28;20570;-65
2021/04/15 12:44:05;;;;;;;2.87;2.50;;;13.90;27.00;;;;;;6240479;28;20486;-67
2021/04/15 12:47:08;;;;;;;2.90;2.57;;;13.60;27.30;;;;;;6249297;28;20476;-67
2021/04/15 12:50:12;;;;;;;2.47;2.27;;;13.60;26.80;;;;;;6248658;28;20475;-66
2021/04/15 12:53:15;;;;;;;3.10;2.37;;;13.60;26.50;;;;;;6224820;28;20825;-65
2021/04/15 12:56:20;;;;;;;2.63;2.40;;;13.90;26.60;;;;;;6224448;28;20964;-70
2021/04/15 12:59:28;;;;;;;2.30;2.10;;;14.20;26.10;;;;;;6224825;28;20484;-65
2021/04/15 13:02:32;;;;;;;2.10;2.00;;;14.20;26.10;;;;;;6224475;28;20476;-66
2021/04/15 13:06:06;;;;;;;2.43;2.23;;;14.10;26.00;;;;;;6225081;28;20495;-64
2021/04/15 13:09:24;;;;;;;2.30;2.20;;;14.00;25.50;;;;;;6192494;28;20455;-67
2021/04/15 13:12:33;;;;;;;2.20;2.10;;;13.80;25.80;;;;;;6228893;28;20491;-69
2021/04/15 13:15:43;;;;;;;3.83;2.37;;;13.50;26.40;;;;;;6229716;28;20483;-67
2021/04/15 13:18:46;;;;;;;3.27;2.30;;;13.10;26.60;;;;;;6229208;28;20941;-66
2021/04/15 13:22:00;;;;;;;3.13;2.83;;;12.90;25.50;;;;;;6229251;28;20467;-66
2021/04/15 13:25:14;;;;;;;5.30;2.40;;;12.80;25.70;;;;;;6229185;28;20479;-63
2021/04/15 13:28:18;;;;;;;2.70;2.50;;;13.10;26.20;;;;;;6229007;28;20486;-65
2021/04/15 13:31:39;;;;;;;3.30;2.13;;;13.30;26.30;;;;;;6228830;28;20482;-63
2021/04/15 13:35:02;;;;;;;2.40;2.10;;;13.60;26.10;;;;;;6228537;28;20480;-66
2021/04/15 13:38:40;;;;;;;2.30;2.00;;;13.70;25.30;;;;;;6228903;28;20472;-66
2021/04/15 13:41:57;;;;;;;4.30;3.03;;;13.70;24.90;;;;;;6249072;28;20911;-65
2021/04/15 13:45:42;;;;;;;2.03;1.93;;;13.50;25.70;;;;;;6248548;28;20458;-65
2021/04/15 13:48:48;;;;;;;2.60;2.27;;;13.30;25.70;;;;;;6253149;28;20463;-66
2021/04/15 13:52:11;;;;;;;2.40;2.20;;;13.20;25.70;;;;;;6252947;28;20510;-66
2021/04/15 13:55:30;;;;;;;2.70;2.50;;;13.20;25.90;;;;;;6252674;28;20487;-67
2021/04/15 13:58:37;;;;;;;2.47;2.27;;;13.20;25.90;;;;;;6252775;28;20970;-64
2021/04/15 14:01:42;;;;;;;3.60;2.50;;;13.00;24.70;;;;;;6252800;28;20552;-64
2021/04/15 14:04:51;;;;;;;2.50;2.10;;;12.70;24.90;;;;;;6252708;28;20978;-67
2021/04/15 14:07:55;;;;;;;2.30;2.20;;;12.70;25.60;;;;;;6252855;28;20482;-68
2021/04/15 14:10:58;;;;;;;2.27;2.10;;;12.80;25.60;;;;;;6252583;28;20481;-67
2021/04/15 14:14:03;;;;;;;3.13;2.70;;;12.70;24.80;;;;;;6252486;28;20482;-67
2021/04/15 14:17:08;;;;;;;3.17;1.90;;;12.80;24.60;;;;;;6252391;28;20475;-64
2021/04/15 14:20:24;;;;;;;2.20;2.07;;;12.70;23.60;;;;;;6252292;28;20856;-63
2021/04/15 14:23:29;;;;;;;2.80;2.03;;;12.60;24.00;;;;;;6252418;28;20480;-63
2021/04/15 14:26:34;;;;;;;3.17;2.87;;;12.40;24.30;;;;;;6252177;28;20471;-63
2021/04/15 14:29:39;;;;;;;2.33;2.13;;;12.40;25.10;;;;;;6252048;28;20793;-65
2021/04/15 14:32:43;;;;;;;2.83;2.63;;;12.50;25.50;;;;;;6252033;28;20969;-65
2021/04/15 14:35:47;;;;;;;2.63;2.43;;;12.50;25.40;;;;;;6252509;28;20446;-64
2021/04/15 14:38:50;;;;;;;2.80;2.60;;;12.50;25.30;;;;;;6251783;28;20532;-62
2021/04/15 14:41:54;;;;;;;2.40;2.20;;;12.50;25.80;;;;;;6251785;28;20755;-63
2021/04/15 14:44:58;;;;;;;2.40;2.20;;;12.40;26.00;;;;;;6251539;28;20494;-67
2021/04/15 14:48:02;;;;;;;3.80;2.17;;;12.40;26.90;;;;;;6242462;28;20459;-63
2021/04/15 14:51:10;;;;;;;3.07;2.30;;;12.50;26.70;;;;;;6251437;28;20474;-62
2021/04/15 14:54:18;;;;;;;2.60;2.40;;;12.40;26.20;;;;;;6251572;28;20483;-63
2021/04/15 14:57:26;;;;;;;2.30;2.10;;;12.40;26.40;;;;;;6251534;28;20472;-64
2021/04/15 15:00:31;;;;;;;2.40;2.20;;;12.50;27.50;;;;;;6251412;28;20470;-63
2021/04/15 15:03:35;;;;;;;2.17;2.07;;;12.80;26.70;;;;;;6251348;28;20930;-63
2021/04/15 15:06:42;;;;;;;2.90;2.70;;;12.80;26.60;;;;;;6249140;28;20470;-67
2021/04/15 15:09:44;;;;;;;3.73;2.20;;;13.00;26.50;;;;;;6250979;28;20969;-66
2021/04/15 15:12:47;;;;;;;2.53;2.37;;;13.00;26.70;;;;;;6250593;28;20799;-65
2021/04/15 15:15:50;;;;;;;3.77;3.13;;;13.00;26.70;;;;;;6250740;28;20467;-66
2021/04/15 15:18:53;;;;;;;4.77;2.17;;;12.80;26.70;;;;;;6250955;28;20470;-66
2021/04/15 15:21:58;;;;;;;2.70;2.50;;;12.60;27.40;;;;;;6251014;28;20459;-66
2021/04/15 15:25:03;;;;;;;3.20;2.90;;;12.50;27.90;;;;;;6250892;28;20490;-66
2021/04/15 15:28:07;;;;;;;2.13;2.00;;;12.40;28.10;;;;;;6251076;28;20478;-66
2021/04/15 15:31:16;;;;;;;4.10;2.70;;;12.30;28.80;;;;;;6250451;28;20475;-62
2021/04/15 15:34:21;;;;;;;3.30;2.23;;;12.30;28.80;;;;;;6250043;28;20467;-65
2021/04/15 15:37:33;;;;;;;5.63;2.33;;;12.10;29.60;;;;;;6250660;28;20993;-64
2021/04/15 15:40:39;;;;;;;2.90;2.70;;;12.00;29.70;;;;;;6250433;28;20482;-65
2021/04/15 15:43:49;;;;;;;2.10;1.90;;;11.90;30.40;;;;;;6250601;28;20545;-64
2021/04/15 15:46:54;;;;;;;5.53;3.03;;;11.80;30.60;;;;;;6250172;28;20982;-62
2021/04/15 15:50:06;;;;;;;2.50;2.40;;;11.90;31.10;;;;;;6250356;28;20467;-61
2021/04/15 15:53:24;;;;;;;5.20;2.63;;;11.80;32.00;;;;;;6220833;28;20578;-63
2021/04/15 15:56:42;;;;;;;2.33;2.13;;;11.80;32.30;;;;;;6225499;28;20484;-64
2021/04/15 15:59:46;;;;;;;3.20;2.60;;;11.60;32.70;;;;;;6225581;28;20789;-63
2021/04/15 16:02:51;;;;;;;3.47;2.53;;;11.40;33.00;;;;;;6225310;28;20475;-63
2021/04/15 16:06:12;;;;;;;2.13;1.93;;;11.40;33.80;;;;;;6226070;28;20466;-63
2021/04/15 16:09:17;;;;;;;2.73;2.00;;;11.30;33.40;;;;;;6225664;28;20508;-63
2021/04/15 16:12:25;;;;;;;3.67;3.30;;;11.30;33.20;;;;;;6225673;28;20472;-63
2021/04/15 16:15:40;;;;;;;2.27;2.07;;;11.30;33.00;;;;;;6245749;28;20478;-63
2021/04/15 16:18:44;;;;;;;4.07;2.83;;;11.20;32.70;;;;;;6249820;28;20459;-64
2021/04/15 16:21:46;;;;;;;2.43;2.10;;;11.20;32.60;;;;;;6249729;28;20869;-64
2021/04/15 16:24:49;;;;;;;3.23;3.03;;;11.10;33.10;;;;;;6249550;28;20827;-61
2021/04/15 16:27:51;;;;;;;4.50;2.20;;;11.10;34.20;;;;;;6249837;28;20467;-65
2021/04/15 16:30:54;;;;;;;3.20;2.10;;;11.10;34.40;;;;;;6248410;28;20481;-61
2021/04/15 16:33:56;;;;;;;2.73;2.10;;;11.00;34.80;;;;;;6247402;28;20467;-60
2021/04/15 16:37:01;;;;;;;3.53;2.60;;;11.00;34.70;;;;;;6247365;28;20987;-60